sensor_id;sensor_type;location;lat;lon;timestamp;P1;durP1;ratioP1;P2;durP2;ratioP2
75499;SDS011;64076;51.466;7.260;2023-10-31T00:01:25;3.60;;;2.30;;
75499;SDS011;64076;51.466;7.260;2023-10-31T00:03:50;3.63;;;2.27;;
75499;SDS011;64076;51.466;7.260;2023-10-31T00:06:16;4.28;;;2.80;;
75499;SDS011;64076;51.466;7.260;2023-10-31T00:08:41;3.27;;;2.20;;
75499;SDS011;64076;51.466;7.260;2023-10-31T00:11:07;3.20;;;2.20;;
75499;SDS011;64076;51.466;7.260;2023-10-31T00:13:32;3.65;;;2.30;;
75499;SDS011;64076;51.466;7.260;2023-10-31T00:15:58;3.40;;;2.37;;
75499;SDS011;64076;51.466;7.260;2023-10-31T00:18:24;3.25;;;2.38;;
75499;SDS011;64076;51.466;7.260;2023-10-31T00:20:49;4.17;;;2.53;;
75499;SDS011;64076;51.466;7.260;2023-10-31T00:23:15;4.87;;;2.27;;
75499;SDS011;64076;51.466;7.260;2023-10-31T00:25:40;3.22;;;2.40;;
75499;SDS011;64076;51.466;7.260;2023-10-31T00:28:06;3.27;;;2.27;;
75499;SDS011;64076;51.466;7.260;2023-10-31T00:30:32;4.45;;;2.53;;
75499;SDS011;64076;51.466;7.260;2023-10-31T00:32:57;3.60;;;2.50;;
75499;SDS011;64076;51.466;7.260;2023-10-31T00:35:23;3.75;;;2.28;;
75499;SDS011;64076;51.466;7.260;2023-10-31T00:37:48;4.00;;;2.47;;
75499;SDS011;64076;51.466;7.260;2023-10-31T00:40:14;3.40;;;2.47;;
75499;SDS011;64076;51.466;7.260;2023-10-31T00:42:41;3.33;;;2.70;;
75499;SDS011;64076;51.466;7.260;2023-10-31T00:45:07;3.57;;;2.47;;
75499;SDS011;64076;51.466;7.260;2023-10-31T00:47:33;3.73;;;2.53;;
75499;SDS011;64076;51.466;7.260;2023-10-31T00:49:59;3.75;;;2.28;;
75499;SDS011;64076;51.466;7.260;2023-10-31T00:52:25;3.50;;;2.40;;
75499;SDS011;64076;51.466;7.260;2023-10-31T00:54:50;2.85;;;2.20;;
75499;SDS011;64076;51.466;7.260;2023-10-31T00:57:16;3.40;;;2.17;;
75499;SDS011;64076;51.466;7.260;2023-10-31T00:59:41;3.00;;;2.17;;
75499;SDS011;64076;51.466;7.260;2023-10-31T01:02:07;3.22;;;2.40;;
75499;SDS011;64076;51.466;7.260;2023-10-31T01:04:32;3.17;;;2.33;;
75499;SDS011;64076;51.466;7.260;2023-10-31T01:06:58;3.00;;;2.35;;
75499;SDS011;64076;51.466;7.260;2023-10-31T01:09:24;3.47;;;2.03;;
75499;SDS011;64076;51.466;7.260;2023-10-31T01:11:49;2.83;;;2.03;;
75499;SDS011;64076;51.466;7.260;2023-10-31T01:14:15;3.13;;;2.38;;
75499;SDS011;64076;51.466;7.260;2023-10-31T01:16:40;3.17;;;2.10;;
75499;SDS011;64076;51.466;7.260;2023-10-31T01:19:06;3.08;;;2.33;;
75499;SDS011;64076;51.466;7.260;2023-10-31T01:21:32;4.00;;;2.20;;
75499;SDS011;64076;51.466;7.260;2023-10-31T01:23:58;3.58;;;2.45;;
75499;SDS011;64076;51.466;7.260;2023-10-31T01:26:24;3.22;;;2.33;;
75499;SDS011;64076;51.466;7.260;2023-10-31T01:28:49;2.83;;;2.00;;
75499;SDS011;64076;51.466;7.260;2023-10-31T01:31:15;2.53;;;1.90;;
75499;SDS011;64076;51.466;7.260;2023-10-31T01:33:41;3.20;;;2.40;;
75499;SDS011;64076;51.466;7.260;2023-10-31T01:36:06;2.50;;;1.87;;
75499;SDS011;64076;51.466;7.260;2023-10-31T01:38:32;2.95;;;1.85;;
75499;SDS011;64076;51.466;7.260;2023-10-31T01:40:58;3.43;;;2.10;;
75499;SDS011;64076;51.466;7.260;2023-10-31T01:43:32;3.50;;;2.10;;
75499;SDS011;64076;51.466;7.260;2023-10-31T01:45:59;3.87;;;2.17;;
75499;SDS011;64076;51.466;7.260;2023-10-31T01:48:26;3.03;;;1.98;;
75499;SDS011;64076;51.466;7.260;2023-10-31T01:50:54;2.85;;;1.73;;
75499;SDS011;64076;51.466;7.260;2023-10-31T01:53:19;2.43;;;1.87;;
75499;SDS011;64076;51.466;7.260;2023-10-31T01:55:45;2.58;;;1.80;;
75499;SDS011;64076;51.466;7.260;2023-10-31T01:58:11;3.13;;;1.85;;
75499;SDS011;64076;51.466;7.260;2023-10-31T02:00:39;2.67;;;1.80;;
75499;SDS011;64076;51.466;7.260;2023-10-31T02:03:08;3.83;;;2.27;;
75499;SDS011;64076;51.466;7.260;2023-10-31T02:05:34;2.97;;;2.38;;
75499;SDS011;64076;51.466;7.260;2023-10-31T02:08:03;2.75;;;2.10;;
75499;SDS011;64076;51.466;7.260;2023-10-31T02:10:33;3.47;;;2.40;;
75499;SDS011;64076;51.466;7.260;2023-10-31T02:12:58;3.42;;;1.88;;
75499;SDS011;64076;51.466;7.260;2023-10-31T02:15:38;3.47;;;1.80;;
75499;SDS011;64076;51.466;7.260;2023-10-31T02:18:04;3.13;;;2.13;;
75499;SDS011;64076;51.466;7.260;2023-10-31T02:20:30;3.73;;;2.23;;
75499;SDS011;64076;51.466;7.260;2023-10-31T02:22:56;2.55;;;2.08;;
75499;SDS011;64076;51.466;7.260;2023-10-31T02:25:21;4.20;;;2.30;;
75499;SDS011;64076;51.466;7.260;2023-10-31T02:27:47;3.00;;;2.20;;
75499;SDS011;64076;51.466;7.260;2023-10-31T02:30:13;2.40;;;1.70;;
75499;SDS011;64076;51.466;7.260;2023-10-31T02:32:39;2.63;;;1.80;;
75499;SDS011;64076;51.466;7.260;2023-10-31T02:35:05;3.90;;;2.03;;
75499;SDS011;64076;51.466;7.260;2023-10-31T02:37:32;2.50;;;1.88;;
75499;SDS011;64076;51.466;7.260;2023-10-31T02:39:57;2.63;;;1.83;;
75499;SDS011;64076;51.466;7.260;2023-10-31T02:42:24;2.80;;;1.90;;
75499;SDS011;64076;51.466;7.260;2023-10-31T02:44:50;2.72;;;1.80;;
75499;SDS011;64076;51.466;7.260;2023-10-31T02:47:16;2.93;;;1.70;;
75499;SDS011;64076;51.466;7.260;2023-10-31T02:49:41;2.95;;;1.75;;
75499;SDS011;64076;51.466;7.260;2023-10-31T02:52:07;3.10;;;1.90;;
75499;SDS011;64076;51.466;7.260;2023-10-31T02:54:33;3.15;;;2.20;;
75499;SDS011;64076;51.466;7.260;2023-10-31T02:56:58;2.70;;;2.00;;
75499;SDS011;64076;51.466;7.260;2023-10-31T02:59:24;3.13;;;1.92;;
75499;SDS011;64076;51.466;7.260;2023-10-31T03:01:49;2.90;;;2.00;;
75499;SDS011;64076;51.466;7.260;2023-10-31T03:04:15;2.40;;;1.90;;
75499;SDS011;64076;51.466;7.260;2023-10-31T03:06:41;3.15;;;1.85;;
75499;SDS011;64076;51.466;7.260;2023-10-31T03:09:07;3.03;;;1.70;;
75499;SDS011;64076;51.466;7.260;2023-10-31T03:11:33;2.30;;;1.73;;
75499;SDS011;64076;51.466;7.260;2023-10-31T03:13:58;2.28;;;1.73;;
75499;SDS011;64076;51.466;7.260;2023-10-31T03:16:24;3.23;;;1.87;;
75499;SDS011;64076;51.466;7.260;2023-10-31T03:18:51;2.95;;;2.13;;
75499;SDS011;64076;51.466;7.260;2023-10-31T03:21:17;2.57;;;1.70;;
75499;SDS011;64076;51.466;7.260;2023-10-31T03:23:44;2.90;;;1.60;;
75499;SDS011;64076;51.466;7.260;2023-10-31T03:26:12;2.93;;;1.60;;
75499;SDS011;64076;51.466;7.260;2023-10-31T03:28:38;2.53;;;1.80;;
75499;SDS011;64076;51.466;7.260;2023-10-31T03:31:03;2.70;;;1.83;;
75499;SDS011;64076;51.466;7.260;2023-10-31T03:33:29;3.00;;;1.70;;
75499;SDS011;64076;51.466;7.260;2023-10-31T03:35:54;4.15;;;1.90;;
75499;SDS011;64076;51.466;7.260;2023-10-31T03:38:20;3.83;;;1.90;;
75499;SDS011;64076;51.466;7.260;2023-10-31T03:40:45;3.33;;;2.00;;
75499;SDS011;64076;51.466;7.260;2023-10-31T03:43:11;2.97;;;2.20;;
75499;SDS011;64076;51.466;7.260;2023-10-31T03:45:37;3.33;;;1.90;;
75499;SDS011;64076;51.466;7.260;2023-10-31T03:48:02;3.40;;;2.40;;
75499;SDS011;64076;51.466;7.260;2023-10-31T03:50:28;3.20;;;1.97;;
75499;SDS011;64076;51.466;7.260;2023-10-31T03:52:54;3.17;;;2.00;;
75499;SDS011;64076;51.466;7.260;2023-10-31T03:55:19;2.73;;;1.70;;
75499;SDS011;64076;51.466;7.260;2023-10-31T03:57:45;2.83;;;2.03;;
75499;SDS011;64076;51.466;7.260;2023-10-31T04:00:10;2.92;;;2.08;;
75499;SDS011;64076;51.466;7.260;2023-10-31T04:02:37;2.50;;;2.10;;
75499;SDS011;64076;51.466;7.260;2023-10-31T04:05:04;2.65;;;1.83;;
75499;SDS011;64076;51.466;7.260;2023-10-31T04:07:30;2.47;;;1.80;;
75499;SDS011;64076;51.466;7.260;2023-10-31T04:09:56;2.50;;;1.70;;
75499;SDS011;64076;51.466;7.260;2023-10-31T04:12:22;2.77;;;1.90;;
75499;SDS011;64076;51.466;7.260;2023-10-31T04:14:47;3.03;;;2.20;;
75499;SDS011;64076;51.466;7.260;2023-10-31T04:17:13;3.33;;;2.22;;
75499;SDS011;64076;51.466;7.260;2023-10-31T04:19:38;3.70;;;1.87;;
75499;SDS011;64076;51.466;7.260;2023-10-31T04:22:04;3.87;;;2.30;;
75499;SDS011;64076;51.466;7.260;2023-10-31T04:24:29;2.90;;;2.10;;
75499;SDS011;64076;51.466;7.260;2023-10-31T04:26:56;2.40;;;1.90;;
75499;SDS011;64076;51.466;7.260;2023-10-31T04:29:21;2.85;;;2.20;;
75499;SDS011;64076;51.466;7.260;2023-10-31T04:31:47;3.30;;;2.23;;
75499;SDS011;64076;51.466;7.260;2023-10-31T04:34:13;2.60;;;1.98;;
75499;SDS011;64076;51.466;7.260;2023-10-31T04:36:38;2.70;;;2.03;;
75499;SDS011;64076;51.466;7.260;2023-10-31T04:39:04;3.03;;;2.55;;
75499;SDS011;64076;51.466;7.260;2023-10-31T04:41:30;2.33;;;1.90;;
75499;SDS011;64076;51.466;7.260;2023-10-31T04:43:56;2.72;;;2.30;;
75499;SDS011;64076;51.466;7.260;2023-10-31T04:46:21;3.23;;;2.07;;
75499;SDS011;64076;51.466;7.260;2023-10-31T04:48:47;3.53;;;1.97;;
75499;SDS011;64076;51.466;7.260;2023-10-31T04:51:12;2.63;;;2.00;;
75499;SDS011;64076;51.466;7.260;2023-10-31T04:53:38;3.37;;;2.20;;
75499;SDS011;64076;51.466;7.260;2023-10-31T04:56:04;2.75;;;1.90;;
75499;SDS011;64076;51.466;7.260;2023-10-31T04:58:30;2.63;;;2.13;;
75499;SDS011;64076;51.466;7.260;2023-10-31T05:00:55;2.93;;;2.10;;
75499;SDS011;64076;51.466;7.260;2023-10-31T05:03:21;3.30;;;2.30;;
75499;SDS011;64076;51.466;7.260;2023-10-31T05:05:46;3.20;;;1.90;;
75499;SDS011;64076;51.466;7.260;2023-10-31T05:08:12;2.43;;;2.03;;
75499;SDS011;64076;51.466;7.260;2023-10-31T05:10:37;2.53;;;1.80;;
75499;SDS011;64076;51.466;7.260;2023-10-31T05:13:03;2.80;;;2.13;;
75499;SDS011;64076;51.466;7.260;2023-10-31T05:15:28;2.40;;;1.80;;
75499;SDS011;64076;51.466;7.260;2023-10-31T05:17:54;3.00;;;2.20;;
75499;SDS011;64076;51.466;7.260;2023-10-31T05:20:19;2.50;;;2.15;;
75499;SDS011;64076;51.466;7.260;2023-10-31T05:22:46;3.07;;;2.10;;
75499;SDS011;64076;51.466;7.260;2023-10-31T05:25:12;3.20;;;2.10;;
75499;SDS011;64076;51.466;7.260;2023-10-31T05:27:38;3.37;;;2.73;;
75499;SDS011;64076;51.466;7.260;2023-10-31T05:30:04;5.57;;;2.97;;
75499;SDS011;64076;51.466;7.260;2023-10-31T05:32:30;3.42;;;2.80;;
75499;SDS011;64076;51.466;7.260;2023-10-31T05:34:55;2.67;;;2.20;;
75499;SDS011;64076;51.466;7.260;2023-10-31T05:37:21;3.25;;;2.22;;
75499;SDS011;64076;51.466;7.260;2023-10-31T05:39:47;3.03;;;2.40;;
75499;SDS011;64076;51.466;7.260;2023-10-31T05:42:13;2.70;;;2.10;;
75499;SDS011;64076;51.466;7.260;2023-10-31T05:44:38;3.83;;;2.40;;
75499;SDS011;64076;51.466;7.260;2023-10-31T05:47:04;3.40;;;2.15;;
75499;SDS011;64076;51.466;7.260;2023-10-31T05:49:30;3.17;;;2.37;;
75499;SDS011;64076;51.466;7.260;2023-10-31T05:51:55;3.50;;;2.57;;
75499;SDS011;64076;51.466;7.260;2023-10-31T05:54:21;3.22;;;2.30;;
75499;SDS011;64076;51.466;7.260;2023-10-31T05:56:46;2.80;;;2.50;;
75499;SDS011;64076;51.466;7.260;2023-10-31T05:59:12;2.92;;;2.22;;
75499;SDS011;64076;51.466;7.260;2023-10-31T06:01:37;2.80;;;1.90;;
75499;SDS011;64076;51.466;7.260;2023-10-31T06:04:03;2.80;;;2.20;;
75499;SDS011;64076;51.466;7.260;2023-10-31T06:06:32;2.80;;;2.17;;
75499;SDS011;64076;51.466;7.260;2023-10-31T06:08:58;3.13;;;2.10;;
75499;SDS011;64076;51.466;7.260;2023-10-31T06:11:23;2.77;;;2.33;;
75499;SDS011;64076;51.466;7.260;2023-10-31T06:13:52;2.87;;;2.23;;
75499;SDS011;64076;51.466;7.260;2023-10-31T06:16:17;2.70;;;2.28;;
75499;SDS011;64076;51.466;7.260;2023-10-31T06:18:43;3.80;;;2.57;;
75499;SDS011;64076;51.466;7.260;2023-10-31T06:21:08;3.25;;;2.08;;
75499;SDS011;64076;51.466;7.260;2023-10-31T06:23:35;3.17;;;2.70;;
75499;SDS011;64076;51.466;7.260;2023-10-31T06:26:04;3.22;;;2.47;;
75499;SDS011;64076;51.466;7.260;2023-10-31T06:28:30;3.00;;;2.70;;
75499;SDS011;64076;51.466;7.260;2023-10-31T06:30:59;2.90;;;2.27;;
75499;SDS011;64076;51.466;7.260;2023-10-31T06:33:25;2.72;;;2.15;;
75499;SDS011;64076;51.466;7.260;2023-10-31T06:35:50;2.97;;;2.20;;
75499;SDS011;64076;51.466;7.260;2023-10-31T06:38:18;2.60;;;2.13;;
75499;SDS011;64076;51.466;7.260;2023-10-31T06:40:44;3.03;;;2.45;;
75499;SDS011;64076;51.466;7.260;2023-10-31T06:43:10;2.80;;;2.03;;
75499;SDS011;64076;51.466;7.260;2023-10-31T06:45:35;2.60;;;2.05;;
75499;SDS011;64076;51.466;7.260;2023-10-31T06:48:01;2.67;;;2.30;;
75499;SDS011;64076;51.466;7.260;2023-10-31T06:50:27;2.45;;;1.80;;
75499;SDS011;64076;51.466;7.260;2023-10-31T06:52:53;2.35;;;1.77;;
75499;SDS011;64076;51.466;7.260;2023-10-31T06:55:19;2.50;;;1.90;;
75499;SDS011;64076;51.466;7.260;2023-10-31T06:57:45;2.33;;;1.90;;
75499;SDS011;64076;51.466;7.260;2023-10-31T07:00:11;2.13;;;1.80;;
75499;SDS011;64076;51.466;7.260;2023-10-31T07:02:37;2.60;;;1.90;;
75499;SDS011;64076;51.466;7.260;2023-10-31T07:05:03;3.00;;;1.77;;
75499;SDS011;64076;51.466;7.260;2023-10-31T07:07:29;2.30;;;1.70;;
75499;SDS011;64076;51.466;7.260;2023-10-31T07:09:54;2.70;;;1.70;;
75499;SDS011;64076;51.466;7.260;2023-10-31T07:12:20;2.13;;;1.40;;
75499;SDS011;64076;51.466;7.260;2023-10-31T07:14:45;2.22;;;1.40;;
75499;SDS011;64076;51.466;7.260;2023-10-31T07:17:11;2.43;;;1.60;;
75499;SDS011;64076;51.466;7.260;2023-10-31T07:19:36;2.30;;;1.57;;
75499;SDS011;64076;51.466;7.260;2023-10-31T07:22:02;2.00;;;1.40;;
75499;SDS011;64076;51.466;7.260;2023-10-31T07:24:28;1.83;;;1.30;;
75499;SDS011;64076;51.466;7.260;2023-10-31T07:26:54;2.10;;;1.40;;
75499;SDS011;64076;51.466;7.260;2023-10-31T07:29:20;1.92;;;1.50;;
75499;SDS011;64076;51.466;7.260;2023-10-31T07:31:45;2.00;;;1.70;;
75499;SDS011;64076;51.466;7.260;2023-10-31T07:34:11;2.10;;;1.50;;
75499;SDS011;64076;51.466;7.260;2023-10-31T07:36:37;1.88;;;1.30;;
75499;SDS011;64076;51.466;7.260;2023-10-31T07:39:04;2.00;;;1.50;;
75499;SDS011;64076;51.466;7.260;2023-10-31T07:41:30;2.17;;;1.48;;
75499;SDS011;64076;51.466;7.260;2023-10-31T07:43:55;2.00;;;1.50;;
75499;SDS011;64076;51.466;7.260;2023-10-31T07:46:21;1.67;;;1.20;;
75499;SDS011;64076;51.466;7.260;2023-10-31T07:48:48;2.10;;;1.50;;
75499;SDS011;64076;51.466;7.260;2023-10-31T07:51:14;2.17;;;1.30;;
75499;SDS011;64076;51.466;7.260;2023-10-31T07:53:40;1.80;;;1.30;;
75499;SDS011;64076;51.466;7.260;2023-10-31T07:56:14;1.90;;;1.38;;
75499;SDS011;64076;51.466;7.260;2023-10-31T07:58:41;1.60;;;1.20;;
75499;SDS011;64076;51.466;7.260;2023-10-31T08:01:09;1.70;;;1.27;;
75499;SDS011;64076;51.466;7.260;2023-10-31T08:03:38;1.73;;;1.30;;
75499;SDS011;64076;51.466;7.260;2023-10-31T08:06:04;1.83;;;1.33;;
75499;SDS011;64076;51.466;7.260;2023-10-31T08:08:31;1.98;;;1.55;;
75499;SDS011;64076;51.466;7.260;2023-10-31T08:10:56;1.90;;;1.30;;
75499;SDS011;64076;51.466;7.260;2023-10-31T08:13:24;1.67;;;1.25;;
75499;SDS011;64076;51.466;7.260;2023-10-31T08:15:50;1.63;;;1.40;;
75499;SDS011;64076;51.466;7.260;2023-10-31T08:18:16;1.70;;;1.30;;
75499;SDS011;64076;51.466;7.260;2023-10-31T08:20:41;1.60;;;1.17;;
75499;SDS011;64076;51.466;7.260;2023-10-31T08:23:08;1.65;;;1.20;;
75499;SDS011;64076;51.466;7.260;2023-10-31T08:25:34;1.80;;;1.20;;
75499;SDS011;64076;51.466;7.260;2023-10-31T08:27:59;2.00;;;1.40;;
75499;SDS011;64076;51.466;7.260;2023-10-31T08:30:25;1.63;;;1.20;;
75499;SDS011;64076;51.466;7.260;2023-10-31T08:32:50;1.80;;;1.40;;
75499;SDS011;64076;51.466;7.260;2023-10-31T08:35:16;2.20;;;1.60;;
75499;SDS011;64076;51.466;7.260;2023-10-31T08:37:41;1.67;;;1.10;;
75499;SDS011;64076;51.466;7.260;2023-10-31T08:40:07;1.70;;;1.37;;
75499;SDS011;64076;51.466;7.260;2023-10-31T08:42:33;1.95;;;1.30;;
75499;SDS011;64076;51.466;7.260;2023-10-31T08:44:59;1.80;;;1.42;;
75499;SDS011;64076;51.466;7.260;2023-10-31T08:47:24;2.53;;;1.50;;
75499;SDS011;64076;51.466;7.260;2023-10-31T08:49:50;2.00;;;1.73;;
75499;SDS011;64076;51.466;7.260;2023-10-31T08:52:16;1.88;;;1.45;;
75499;SDS011;64076;51.466;7.260;2023-10-31T08:54:42;1.90;;;1.48;;
75499;SDS011;64076;51.466;7.260;2023-10-31T08:57:08;1.90;;;1.40;;
75499;SDS011;64076;51.466;7.260;2023-10-31T08:59:34;2.08;;;1.60;;
75499;SDS011;64076;51.466;7.260;2023-10-31T09:02:00;1.95;;;1.55;;
75499;SDS011;64076;51.466;7.260;2023-10-31T09:04:26;1.80;;;1.50;;
75499;SDS011;64076;51.466;7.260;2023-10-31T09:06:51;1.70;;;1.30;;
75499;SDS011;64076;51.466;7.260;2023-10-31T09:09:17;2.00;;;1.60;;
75499;SDS011;64076;51.466;7.260;2023-10-31T09:11:43;1.93;;;1.60;;
75499;SDS011;64076;51.466;7.260;2023-10-31T09:14:09;2.67;;;1.80;;
75499;SDS011;64076;51.466;7.260;2023-10-31T09:16:34;2.80;;;1.50;;
75499;SDS011;64076;51.466;7.260;2023-10-31T09:19:00;1.73;;;1.30;;
75499;SDS011;64076;51.466;7.260;2023-10-31T09:21:25;2.73;;;1.40;;
75499;SDS011;64076;51.466;7.260;2023-10-31T09:23:51;1.75;;;1.30;;
75499;SDS011;64076;51.466;7.260;2023-10-31T09:26:16;2.60;;;1.33;;
75499;SDS011;64076;51.466;7.260;2023-10-31T09:28:42;1.70;;;1.40;;
75499;SDS011;64076;51.466;7.260;2023-10-31T09:31:14;2.42;;;1.40;;
75499;SDS011;64076;51.466;7.260;2023-10-31T09:33:43;1.80;;;1.27;;
75499;SDS011;64076;51.466;7.260;2023-10-31T09:36:09;1.70;;;1.30;;
75499;SDS011;64076;51.466;7.260;2023-10-31T09:38:35;1.92;;;1.60;;
75499;SDS011;64076;51.466;7.260;2023-10-31T09:41:00;2.00;;;1.50;;
75499;SDS011;64076;51.466;7.260;2023-10-31T09:43:26;2.38;;;1.50;;
75499;SDS011;64076;51.466;7.260;2023-10-31T09:45:52;1.77;;;1.30;;
75499;SDS011;64076;51.466;7.260;2023-10-31T09:48:18;1.70;;;1.30;;
75499;SDS011;64076;51.466;7.260;2023-10-31T09:50:45;1.77;;;1.37;;
75499;SDS011;64076;51.466;7.260;2023-10-31T09:53:12;1.83;;;1.40;;
75499;SDS011;64076;51.466;7.260;2023-10-31T09:55:41;2.92;;;1.40;;
75499;SDS011;64076;51.466;7.260;2023-10-31T09:58:07;1.60;;;1.20;;
75499;SDS011;64076;51.466;7.260;2023-10-31T10:00:33;2.97;;;1.57;;
75499;SDS011;64076;51.466;7.260;2023-10-31T10:03:01;3.08;;;1.60;;
75499;SDS011;64076;51.466;7.260;2023-10-31T10:05:27;2.88;;;1.73;;
75499;SDS011;64076;51.466;7.260;2023-10-31T10:07:55;3.30;;;1.67;;
75499;SDS011;64076;51.466;7.260;2023-10-31T10:10:21;3.00;;;1.80;;
75499;SDS011;64076;51.466;7.260;2023-10-31T10:12:46;3.50;;;1.67;;
75499;SDS011;64076;51.466;7.260;2023-10-31T10:15:12;2.50;;;1.30;;
75499;SDS011;64076;51.466;7.260;2023-10-31T10:17:38;3.10;;;1.40;;
75499;SDS011;64076;51.466;7.260;2023-10-31T10:20:08;2.13;;;1.60;;
75499;SDS011;64076;51.466;7.260;2023-10-31T10:22:36;2.33;;;1.60;;
75499;SDS011;64076;51.466;7.260;2023-10-31T10:25:04;5.63;;;1.95;;
75499;SDS011;64076;51.466;7.260;2023-10-31T10:27:31;5.47;;;1.70;;
75499;SDS011;64076;51.466;7.260;2023-10-31T10:29:56;4.23;;;1.57;;
75499;SDS011;64076;51.466;7.260;2023-10-31T10:32:22;4.23;;;1.60;;
75499;SDS011;64076;51.466;7.260;2023-10-31T10:34:47;3.45;;;1.65;;
75499;SDS011;64076;51.466;7.260;2023-10-31T10:37:13;2.97;;;1.50;;
75499;SDS011;64076;51.466;7.260;2023-10-31T10:39:39;3.40;;;1.57;;
75499;SDS011;64076;51.466;7.260;2023-10-31T10:42:06;4.57;;;1.63;;
75499;SDS011;64076;51.466;7.260;2023-10-31T10:44:35;3.47;;;1.75;;
75499;SDS011;64076;51.466;7.260;2023-10-31T10:47:03;3.60;;;1.63;;
75499;SDS011;64076;51.466;7.260;2023-10-31T10:49:34;2.77;;;1.70;;
75499;SDS011;64076;51.466;7.260;2023-10-31T10:52:06;3.00;;;1.92;;
75499;SDS011;64076;51.466;7.260;2023-10-31T10:54:34;3.63;;;1.98;;
75499;SDS011;64076;51.466;7.260;2023-10-31T10:57:20;4.15;;;1.63;;
75499;SDS011;64076;51.466;7.260;2023-10-31T11:00:09;3.75;;;1.80;;
75499;SDS011;64076;51.466;7.260;2023-10-31T11:02:41;4.13;;;1.70;;
75499;SDS011;64076;51.466;7.260;2023-10-31T11:05:07;3.25;;;1.65;;
75499;SDS011;64076;51.466;7.260;2023-10-31T11:07:35;2.88;;;1.70;;
75499;SDS011;64076;51.466;7.260;2023-10-31T11:10:04;3.90;;;2.00;;
75499;SDS011;64076;51.466;7.260;2023-10-31T11:12:31;3.35;;;2.03;;
75499;SDS011;64076;51.466;7.260;2023-10-31T11:14:57;3.30;;;2.10;;
75499;SDS011;64076;51.466;7.260;2023-10-31T11:17:26;5.63;;;2.17;;
75499;SDS011;64076;51.466;7.260;2023-10-31T11:19:54;2.90;;;2.00;;
75499;SDS011;64076;51.466;7.260;2023-10-31T11:22:20;2.90;;;1.98;;
75499;SDS011;64076;51.466;7.260;2023-10-31T11:24:47;2.72;;;1.83;;
75499;SDS011;64076;51.466;7.260;2023-10-31T11:27:20;3.57;;;1.90;;
75499;SDS011;64076;51.466;7.260;2023-10-31T11:29:46;2.70;;;2.25;;
75499;SDS011;64076;51.466;7.260;2023-10-31T11:32:12;5.68;;;2.28;;
75499;SDS011;64076;51.466;7.260;2023-10-31T11:34:40;6.93;;;2.13;;
75499;SDS011;64076;51.466;7.260;2023-10-31T11:37:23;3.58;;;1.98;;
75499;SDS011;64076;51.466;7.260;2023-10-31T11:42:43;3.45;;;2.22;;
75499;SDS011;64076;51.466;7.260;2023-10-31T11:45:23;3.78;;;2.10;;
75499;SDS011;64076;51.466;7.260;2023-10-31T11:47:52;3.22;;;1.95;;
75499;SDS011;64076;51.466;7.260;2023-10-31T11:50:17;3.10;;;2.10;;
75499;SDS011;64076;51.466;7.260;2023-10-31T11:52:43;4.68;;;1.90;;
75499;SDS011;64076;51.466;7.260;2023-10-31T11:55:09;5.87;;;2.30;;
75499;SDS011;64076;51.466;7.260;2023-10-31T11:57:36;2.75;;;1.63;;
75499;SDS011;64076;51.466;7.260;2023-10-31T12:00:03;3.83;;;2.13;;
75499;SDS011;64076;51.466;7.260;2023-10-31T12:02:29;4.85;;;1.80;;
75499;SDS011;64076;51.466;7.260;2023-10-31T12:05:08;2.73;;;1.73;;
75499;SDS011;64076;51.466;7.260;2023-10-31T12:07:44;3.35;;;1.65;;
75499;SDS011;64076;51.466;7.260;2023-10-31T12:10:10;4.53;;;2.13;;
75499;SDS011;64076;51.466;7.260;2023-10-31T12:12:36;4.35;;;2.10;;
75499;SDS011;64076;51.466;7.260;2023-10-31T12:15:05;3.73;;;1.80;;
75499;SDS011;64076;51.466;7.260;2023-10-31T12:17:32;2.67;;;1.80;;
75499;SDS011;64076;51.466;7.260;2023-10-31T12:19:57;2.67;;;1.67;;
75499;SDS011;64076;51.466;7.260;2023-10-31T12:22:27;2.90;;;1.95;;
75499;SDS011;64076;51.466;7.260;2023-10-31T12:24:59;3.53;;;1.60;;
75499;SDS011;64076;51.466;7.260;2023-10-31T12:27:25;3.80;;;1.50;;
75499;SDS011;64076;51.466;7.260;2023-10-31T12:30:06;2.95;;;1.70;;
75499;SDS011;64076;51.466;7.260;2023-10-31T12:32:32;2.60;;;1.70;;
75499;SDS011;64076;51.466;7.260;2023-10-31T12:35:00;3.35;;;1.48;;
75499;SDS011;64076;51.466;7.260;2023-10-31T12:37:25;2.50;;;1.30;;
75499;SDS011;64076;51.466;7.260;2023-10-31T12:39:51;2.63;;;1.70;;
75499;SDS011;64076;51.466;7.260;2023-10-31T12:42:17;2.57;;;1.50;;
75499;SDS011;64076;51.466;7.260;2023-10-31T12:44:43;3.20;;;1.58;;
75499;SDS011;64076;51.466;7.260;2023-10-31T12:47:09;3.20;;;1.52;;
75499;SDS011;64076;51.466;7.260;2023-10-31T12:49:34;3.37;;;1.53;;
75499;SDS011;64076;51.466;7.260;2023-10-31T12:54:27;4.15;;;1.75;;
75499;SDS011;64076;51.466;7.260;2023-10-31T12:56:54;2.40;;;1.20;;
75499;SDS011;64076;51.466;7.260;2023-10-31T12:59:24;1.70;;;0.80;;
75499;SDS011;64076;51.466;7.260;2023-10-31T13:01:52;2.50;;;1.20;;
75499;SDS011;64076;51.466;7.260;2023-10-31T13:04:24;1.73;;;0.80;;
75499;SDS011;64076;51.466;7.260;2023-10-31T13:09:22;2.50;;;0.90;;
75499;SDS011;64076;51.466;7.260;2023-10-31T13:11:47;2.83;;;0.87;;
75499;SDS011;64076;51.466;7.260;2023-10-31T13:14:16;1.80;;;0.70;;
75499;SDS011;64076;51.466;7.260;2023-10-31T13:16:41;1.90;;;0.80;;
75499;SDS011;64076;51.466;7.260;2023-10-31T13:19:07;3.45;;;0.80;;
75499;SDS011;64076;51.466;7.260;2023-10-31T13:21:32;2.47;;;0.70;;
75499;SDS011;64076;51.466;7.260;2023-10-31T13:23:57;2.37;;;0.60;;
75499;SDS011;64076;51.466;7.260;2023-10-31T13:26:27;1.63;;;0.52;;
75499;SDS011;64076;51.466;7.260;2023-10-31T13:28:57;2.38;;;0.70;;
75499;SDS011;64076;51.466;7.260;2023-10-31T13:31:22;3.03;;;0.77;;
75499;SDS011;64076;51.466;7.260;2023-10-31T13:33:48;1.50;;;0.67;;
75499;SDS011;64076;51.466;7.260;2023-10-31T13:36:13;1.45;;;0.50;;
75499;SDS011;64076;51.466;7.260;2023-10-31T13:38:39;2.47;;;0.70;;
75499;SDS011;64076;51.466;7.260;2023-10-31T13:41:05;2.00;;;0.77;;
75499;SDS011;64076;51.466;7.260;2023-10-31T13:43:31;1.67;;;0.60;;
75499;SDS011;64076;51.466;7.260;2023-10-31T13:45:56;2.20;;;0.80;;
75499;SDS011;64076;51.466;7.260;2023-10-31T13:48:22;17.90;;;1.60;;
75499;SDS011;64076;51.466;7.260;2023-10-31T13:50:48;7.60;;;1.07;;
75499;SDS011;64076;51.466;7.260;2023-10-31T13:53:14;8.20;;;0.95;;
75499;SDS011;64076;51.466;7.260;2023-10-31T13:55:40;6.28;;;0.93;;
75499;SDS011;64076;51.466;7.260;2023-10-31T13:58:06;3.03;;;0.90;;
75499;SDS011;64076;51.466;7.260;2023-10-31T14:00:32;1.88;;;0.55;;
75499;SDS011;64076;51.466;7.260;2023-10-31T14:02:59;2.40;;;0.55;;
75499;SDS011;64076;51.466;7.260;2023-10-31T14:05:25;1.67;;;0.70;;
75499;SDS011;64076;51.466;7.260;2023-10-31T14:07:50;4.40;;;0.70;;
75499;SDS011;64076;51.466;7.260;2023-10-31T14:10:16;4.05;;;0.60;;
75499;SDS011;64076;51.466;7.260;2023-10-31T14:12:44;1.90;;;0.65;;
75499;SDS011;64076;51.466;7.260;2023-10-31T14:15:13;2.45;;;0.70;;
75499;SDS011;64076;51.466;7.260;2023-10-31T14:17:41;3.30;;;0.60;;
75499;SDS011;64076;51.466;7.260;2023-10-31T14:20:07;1.38;;;0.60;;
75499;SDS011;64076;51.466;7.260;2023-10-31T14:22:33;2.22;;;0.50;;
75499;SDS011;64076;51.466;7.260;2023-10-31T14:24:58;2.13;;;0.43;;
75499;SDS011;64076;51.466;7.260;2023-10-31T14:27:24;1.40;;;0.40;;
75499;SDS011;64076;51.466;7.260;2023-10-31T14:29:50;1.38;;;0.55;;
75499;SDS011;64076;51.466;7.260;2023-10-31T14:32:17;2.42;;;0.70;;
75499;SDS011;64076;51.466;7.260;2023-10-31T14:34:43;1.97;;;0.63;;
75499;SDS011;64076;51.466;7.260;2023-10-31T14:37:08;1.50;;;0.50;;
75499;SDS011;64076;51.466;7.260;2023-10-31T14:39:34;1.00;;;0.50;;
75499;SDS011;64076;51.466;7.260;2023-10-31T14:41:59;1.10;;;0.40;;
75499;SDS011;64076;51.466;7.260;2023-10-31T14:44:25;1.15;;;0.40;;
75499;SDS011;64076;51.466;7.260;2023-10-31T14:46:52;2.05;;;0.55;;
75499;SDS011;64076;51.466;7.260;2023-10-31T14:49:18;1.70;;;0.50;;
75499;SDS011;64076;51.466;7.260;2023-10-31T14:51:46;2.20;;;0.70;;